createdAt,value
2023-02-12T00:01:35.153Z,18.55
2023-02-12T00:06:38.416Z,19.40
2023-02-12T00:11:42.056Z,29.80
2023-02-12T00:16:44.888Z,30.85
2023-02-12T00:21:47.669Z,22.67
2023-02-12T00:26:51.389Z,18.23
2023-02-12T00:31:54.370Z,20.23
2023-02-12T00:36:57.186Z,20.00
2023-02-12T00:41:59.876Z,15.57
2023-02-12T00:47:02.941Z,13.63
2023-02-12T00:52:05.714Z,19.42
2023-02-12T00:57:08.625Z,21.90
2023-02-12T01:02:11.348Z,17.88
2023-02-12T01:07:14.057Z,13.32
2023-02-12T01:12:16.591Z,19.85
2023-02-12T01:17:19.353Z,15.02
2023-02-12T01:22:22.042Z,22.35
2023-02-12T01:27:26.078Z,15.65
2023-02-12T01:32:31.005Z,14.60
2023-02-12T01:37:35.332Z,14.95
2023-02-12T01:42:40.438Z,15.63
2023-02-12T01:47:44.272Z,17.50
2023-02-12T01:52:49.237Z,19.83
2023-02-12T01:57:52.303Z,25.98
2023-02-12T02:02:57.045Z,18.33
2023-02-12T02:08:00.266Z,17.33
2023-02-12T02:13:22.205Z,18.17
2023-02-12T02:18:30.837Z,17.02
2023-02-12T02:23:52.016Z,15.82
2023-02-12T02:29:13.554Z,16.00
2023-02-12T02:34:35.103Z,19.42
2023-02-12T02:39:40.012Z,18.17
2023-02-12T02:44:47.461Z,19.23
2023-02-12T02:49:56.343Z,16.38
2023-02-12T02:55:02.902Z,19.35
2023-02-12T03:00:12.223Z,22.00
2023-02-12T03:05:19.767Z,20.65
2023-02-12T03:10:31.218Z,16.85
2023-02-12T03:15:33.992Z,13.73
2023-02-12T03:20:45.059Z,19.60
2023-02-12T03:25:57.909Z,25.75
2023-02-12T03:31:09.787Z,24.67
2023-02-12T03:36:22.102Z,20.23
2023-02-12T03:41:26.425Z,17.48
2023-02-12T03:46:39.986Z,30.77
2023-02-12T03:51:44.185Z,23.42
2023-02-12T03:56:52.891Z,23.35
2023-02-12T04:01:57.861Z,24.35
2023-02-12T04:07:01.222Z,16.55
2023-02-12T04:12:03.828Z,15.18
2023-02-12T04:17:10.156Z,13.45
2023-02-12T04:22:21.901Z,21.23
2023-02-12T04:27:37.577Z,18.30
2023-02-12T04:32:40.047Z,17.77
2023-02-12T04:37:44.628Z,25.33
2023-02-12T04:42:52.081Z,16.67
2023-02-12T04:47:55.010Z,17.63
2023-02-12T04:52:57.746Z,18.20
2023-02-12T04:58:00.479Z,23.73
2023-02-12T05:03:03.314Z,21.38
2023-02-12T05:08:06.057Z,18.58
2023-02-12T05:13:08.797Z,16.63
2023-02-12T05:18:11.564Z,21.65
2023-02-12T05:23:14.205Z,15.10
2023-02-12T05:28:16.717Z,16.45
2023-02-12T05:33:19.267Z,15.95
2023-02-12T05:38:22.291Z,20.83
2023-02-12T05:43:25.101Z,19.40
2023-02-12T05:48:28.615Z,19.95
2023-02-12T05:53:31.563Z,18.77
2023-02-12T05:58:34.334Z,20.17
2023-02-12T06:03:37.079Z,14.27
2023-02-12T06:08:39.891Z,23.80
2023-02-12T06:13:42.706Z,20.13
2023-02-12T06:18:45.531Z,15.32
2023-02-12T06:23:48.558Z,17.23
2023-02-12T06:28:51.642Z,15.98
2023-02-12T06:33:55.141Z,14.93
2023-02-12T06:38:57.817Z,21.17
2023-02-12T06:44:00.592Z,18.55
2023-02-12T06:49:03.475Z,17.48
2023-02-12T06:54:06.103Z,18.70
2023-02-12T06:59:12.457Z,24.05
2023-02-12T07:04:15.366Z,14.75
2023-02-12T07:09:18.187Z,18.45
2023-02-12T07:14:20.757Z,17.58
2023-02-12T07:19:23.812Z,15.32
2023-02-12T07:24:26.641Z,17.85
2023-02-12T07:29:29.366Z,13.52
2023-02-12T07:34:32.281Z,17.25
2023-02-12T07:39:35.064Z,16.02
2023-02-12T07:44:37.822Z,17.98
2023-02-12T07:49:40.562Z,16.83
2023-02-12T07:54:43.275Z,14.73
2023-02-12T07:59:46.363Z,15.68
2023-02-12T08:04:49.303Z,10.55
2023-02-12T08:09:55.560Z,13.25
2023-02-12T08:14:58.241Z,18.10
2023-02-12T08:20:00.960Z,15.35
2023-02-12T08:25:03.543Z,16.20
2023-02-12T08:30:06.407Z,17.08
2023-02-12T08:35:08.889Z,12.77
2023-02-12T08:40:14.190Z,16.70
2023-02-12T08:45:16.692Z,13.48
2023-02-12T08:50:19.258Z,13.75
2023-02-12T08:55:21.956Z,15.95
2023-02-12T09:00:24.724Z,15.63
2023-02-12T09:05:27.429Z,15.52
2023-02-12T09:10:30.109Z,15.27
2023-02-12T09:15:36.300Z,15.40
2023-02-12T09:20:40.355Z,10.07
2023-02-12T09:25:44.174Z,13.35
2023-02-12T09:30:47.045Z,12.07
2023-02-12T09:35:50.373Z,14.38
2023-02-12T09:40:56.025Z,12.40
2023-02-12T09:46:02.559Z,16.23
2023-02-12T09:51:07.838Z,16.45
2023-02-12T09:56:14.074Z,13.18
2023-02-12T10:01:18.472Z,24.50
2023-02-12T10:06:22.612Z,19.92
2023-02-12T10:11:31.265Z,12.57
2023-02-12T10:16:52.636Z,18.13
2023-02-12T10:22:08.941Z,15.32
2023-02-12T10:27:17.958Z,14.70
2023-02-12T10:32:26.605Z,12.85
2023-02-12T10:37:42.996Z,14.13
2023-02-12T10:42:47.568Z,10.48
2023-02-12T10:47:53.819Z,11.98
2023-02-12T10:53:07.485Z,14.00
2023-02-12T10:58:34.274Z,19.20
2023-02-12T11:03:41.627Z,18.40
2023-02-12T11:08:58.439Z,16.08
2023-02-12T11:14:16.814Z,16.90
2023-02-12T11:19:22.188Z,11.38
2023-02-12T11:30:20.766Z,11.00
2023-02-12T11:35:26.099Z,19.38
2023-02-12T11:40:39.106Z,13.23
2023-02-12T11:45:47.934Z,13.00
2023-02-12T11:50:55.766Z,12.98
2023-02-12T11:56:04.780Z,17.75
2023-02-12T12:01:30.797Z,13.43
2023-02-12T12:06:55.222Z,12.32
2023-02-12T12:12:02.935Z,15.63
2023-02-12T12:17:52.572Z,14.32
2023-02-12T12:23:07.989Z,11.38
2023-02-12T12:28:31.542Z,9.52
2023-02-12T12:33:41.864Z,9.80
2023-02-12T12:38:58.355Z,8.43
2023-02-12T12:44:05.061Z,7.85
2023-02-12T12:49:22.733Z,8.65
2023-02-12T12:54:28.783Z,7.47
2023-02-12T12:59:33.314Z,9.82
2023-02-12T13:04:43.525Z,9.00
2023-02-12T13:10:10.258Z,8.23
2023-02-12T13:15:36.064Z,7.45
2023-02-12T13:20:50.560Z,6.60
2023-02-12T13:26:28.053Z,7.20
2023-02-12T13:31:34.698Z,6.05
2023-02-12T13:36:40.202Z,7.05
2023-02-12T13:41:48.022Z,6.97
2023-02-12T13:46:52.357Z,6.65
2023-02-12T13:52:09.404Z,6.10
2023-02-12T13:57:15.115Z,8.07
2023-02-12T14:02:32.490Z,5.43
2023-02-12T14:07:50.970Z,6.93
2023-02-12T14:12:57.894Z,7.13
2023-02-12T14:18:13.847Z,8.25
2023-02-12T14:23:30.358Z,5.90
2023-02-12T14:28:48.146Z,10.38
2023-02-12T14:33:53.392Z,6.22
2023-02-12T14:39:00.454Z,7.22
2023-02-12T14:44:18.751Z,6.50
2023-02-12T14:49:34.217Z,7.47
2023-02-12T14:55:00.075Z,10.05
2023-02-12T15:00:18.049Z,6.00
2023-02-12T15:05:32.215Z,8.13
2023-02-12T15:10:40.092Z,7.93
2023-02-12T15:16:03.070Z,8.02
2023-02-12T15:21:10.089Z,8.43
2023-02-12T15:26:20.509Z,9.07
2023-02-12T15:31:26.489Z,7.35
2023-02-12T15:36:30.928Z,8.13
2023-02-12T15:41:33.535Z,8.60
2023-02-12T15:46:36.199Z,7.88
2023-02-12T15:51:41.919Z,7.40
2023-02-12T15:56:44.611Z,10.65
2023-02-12T16:02:02.573Z,9.27
2023-02-12T16:07:05.147Z,9.20
2023-02-12T16:12:11.606Z,10.13
2023-02-12T16:17:27.610Z,11.20
2023-02-12T16:22:36.375Z,8.40
2023-02-12T16:27:40.377Z,104.55
2023-02-12T16:32:43.603Z,8.75
2023-02-12T16:37:50.536Z,21.63
2023-02-12T16:42:53.312Z,7.93
2023-02-12T16:48:00.761Z,12.45
2023-02-12T16:53:04.879Z,9.07
2023-02-12T16:58:08.421Z,7.30
2023-02-12T17:03:14.658Z,7.93
2023-02-12T17:08:18.842Z,29.58
2023-02-12T17:13:21.593Z,13.73
2023-02-12T17:18:24.768Z,8.15
2023-02-12T17:23:27.787Z,5.88
2023-02-12T17:28:31.218Z,5.72
2023-02-12T17:33:33.957Z,6.95
2023-02-12T17:38:36.833Z,6.55
2023-02-12T17:43:39.635Z,5.75
2023-02-12T17:48:42.481Z,7.00
2023-02-12T17:53:45.528Z,7.53
2023-02-12T17:58:48.936Z,5.40
2023-02-12T18:03:54.534Z,5.57
2023-02-12T18:08:58.389Z,8.32
2023-02-12T18:14:01.220Z,8.68
2023-02-12T18:19:05.906Z,6.45
2023-02-12T18:24:08.944Z,5.70
2023-02-12T18:29:11.550Z,10.88
2023-02-12T18:34:14.212Z,7.05
2023-02-12T18:39:16.737Z,11.57
2023-02-12T18:44:19.391Z,8.20
2023-02-12T18:49:22.149Z,11.38
2023-02-12T18:54:25.053Z,9.25
2023-02-12T18:59:27.622Z,11.23
2023-02-12T19:04:30.373Z,14.20
2023-02-12T19:09:32.885Z,14.23
2023-02-12T19:14:35.451Z,12.35
2023-02-12T19:19:38.221Z,10.70
2023-02-12T19:24:46.648Z,13.18
2023-02-12T19:29:49.972Z,12.75
2023-02-12T19:34:52.492Z,14.90
2023-02-12T19:39:55.033Z,13.07
2023-02-12T19:44:57.724Z,16.33
2023-02-12T19:50:00.228Z,17.38
2023-02-12T19:55:02.956Z,12.15
2023-02-12T20:00:05.911Z,15.35
2023-02-12T20:05:08.647Z,13.75
2023-02-12T20:10:11.708Z,19.48
2023-02-12T20:15:14.427Z,15.00
2023-02-12T20:20:17.160Z,18.35
2023-02-12T20:25:19.715Z,18.77
2023-02-12T20:30:22.805Z,17.58
2023-02-12T20:35:25.487Z,20.83
2023-02-12T20:40:28.639Z,15.15
2023-02-12T20:45:31.151Z,15.55
2023-02-12T20:50:33.980Z,14.05
2023-02-12T20:55:36.505Z,13.65
2023-02-12T21:00:39.015Z,18.08
2023-02-12T21:05:41.753Z,20.33
2023-02-12T21:10:44.453Z,18.00
2023-02-12T21:15:47.222Z,19.13
2023-02-12T21:20:49.981Z,21.73
2023-02-12T21:25:59.026Z,23.95
2023-02-12T21:31:16.911Z,24.13
2023-02-12T21:36:20.842Z,22.40
2023-02-12T21:41:35.835Z,26.75
2023-02-12T21:46:38.871Z,26.65
2023-02-12T21:51:43.058Z,26.30
2023-02-12T21:56:46.836Z,30.27
2023-02-12T22:01:50.809Z,32.65
2023-02-12T22:06:54.324Z,31.83
2023-02-12T22:11:57.362Z,31.45
2023-02-12T22:17:00.132Z,31.55
2023-02-12T22:22:02.642Z,31.70
2023-02-12T22:27:05.369Z,33.95
2023-02-12T22:32:08.015Z,35.83
2023-02-12T22:37:10.982Z,36.47
2023-02-12T22:42:13.541Z,35.72
2023-02-12T22:47:16.226Z,33.97
2023-02-12T22:52:18.902Z,42.38
2023-02-12T22:57:21.607Z,48.13
2023-02-12T23:02:24.255Z,44.25
2023-02-12T23:07:26.956Z,41.60
2023-02-12T23:12:29.657Z,46.20
2023-02-12T23:17:32.136Z,45.67
2023-02-12T23:22:35.468Z,38.65
2023-02-12T23:27:38.234Z,43.45
2023-02-12T23:32:40.712Z,47.17
2023-02-12T23:37:43.424Z,50.50
2023-02-12T23:42:48.823Z,43.25
2023-02-12T23:47:51.569Z,37.38
2023-02-12T23:52:54.081Z,34.38
2023-02-12T23:57:56.849Z,32.15
